Pickle Lake, Canada
Current Conditions -  °F | °C
As of 9:00 PM on Thursday 23 Oct 2014 (Local Time) from CYPL Reporting Station
Broken Clouds Broken Clouds  
Wind Chill: 43°   Ceiling: 3500
Heat Index: 48°   Visibility: 15mi
Dew Point: 45°   Wind: 12mph
Humidity: 87%   Direction: 180°S
Pressure: 29.82"   Gusts: NA
Location:  51.47°N, 90.18°W
Report Text: CYPL 240200Z 18010KT 15SM BKN035 09/07 A2982 RMK SC5 LAST OBS/NEXT 241100Z SLP109
Loading
Personal Weather Stations






























Interactive Weather Map
Tropical Storm Tracking
New forecast layout! Learn more

10-Day Weather Forecast

Advertisements
Track Severe Weather on mobile